Aeroporto :
LOGIN :

Iscrizione | Disclaimer

   EN    FR    IT 

 










Sommario :    VFR   VFR Marginale   IFR   IFR Intensivo   IFR Molto Intensivo
Visibilità : 
Base nubi : 
>= 8 km
>= 3000ft
5 / 8 km
1000 / 3000 ft
1500m / 5 km
500 / 1000 ft
800 / 1500m
200 / 500 ft
< 800m
< 200 ft
Simboli :   Temporali  Nebbia  Neve Forte  Precipitazioni Forti  Vento > 20 kt
SIGMETs :   Varie  Temporali  Ghiacco  Turbolenza  Onda orograficha  Ceneri Vulcaniche







- Altitudine del aeroporto : 856 ft
- Codice IATA : VGO


LEVX - Vigo Peinador

ULTIMO METAR :
  • 190400Z 04003KT 320V120 9999 SCT028 BKN047 11/09 Q1014 NOSIG

METARs OBSOLETI :
  • 190330Z 02004KT 300V090 CAVOK 11/08 Q1014 NOSIG
  • 190300Z 04005KT 340V080 CAVOK 11/08 Q1014 NOSIG
  • 190230Z 03005KT 340V100 CAVOK 11/08 Q1015 NOSIG
  • 190200Z 02008KT 340V070 CAVOK 12/08 Q1015 NOSIG
  • 190130Z 02008KT 340V050 CAVOK 12/09 Q1015 NOSIG

TAF TAF LEVX
Valido dal 19 a 00 ore il 20 a 00 ore UTC


182300Z 1900/1924 01006KT 9999 FEW010 TX23/1915Z TN08/1906Z
PROB30 1905/1910 3000 -RA BR BKN010
Nessun NOTAM noto per questo aeroporto.



MetMap, La meteo Aeronautica in un colpo d'occhio ! - Copyright ORBIFLY Dicembre 2007 - Disclaimer

ORBIFLY MET'MAP TEAM :

Programmazione e sviluppo : Alexandra Zaïnal
Concezione e sviluppo : Baudouin d'Aumeries
Co-Programmazione e sviluppo : Marc-Olivier Méhu
Supporto tecnico e logistico : Manuel Goepfert
Aiuto per la traduzione : Arnaldo La Scala

Contatto : metmap@orbifly.com




FONTI E CREDITI :

   NOAA